createdAt,value
2019-03-19T00:00:01.414Z,0.1
2019-03-19T00:05:01.600Z,0.1
2019-03-19T00:10:01.509Z,0.1
2019-03-19T00:15:01.456Z,0.1
2019-03-19T00:20:02.168Z,0.1
2019-03-19T00:25:01.512Z,0.1
2019-03-19T00:30:01.417Z,0.1
2019-03-19T00:35:01.577Z,0.1
2019-03-19T00:45:01.504Z,0.0
2019-03-19T00:50:01.439Z,0.1
2019-03-19T00:55:01.455Z,0.1
2019-03-19T01:00:01.481Z,0.2
2019-03-19T01:10:01.528Z,0.3
2019-03-19T01:15:01.508Z,0.3
2019-03-19T01:20:01.453Z,0.2
2019-03-19T01:25:01.554Z,0.1
2019-03-19T01:30:01.409Z,0.2
2019-03-19T01:35:01.437Z,0.2
2019-03-19T01:40:01.441Z,0.1
2019-03-19T01:45:01.463Z,0.1
2019-03-19T01:50:01.471Z,0.1
2019-03-19T01:55:01.541Z,0.2
2019-03-19T02:00:01.459Z,0.2
2019-03-19T02:10:01.542Z,0.3
2019-03-19T02:15:01.544Z,0.2
2019-03-19T02:20:01.474Z,0.2
2019-03-19T02:25:01.507Z,0.2
2019-03-19T02:30:01.536Z,0.2
2019-03-19T02:45:01.547Z,0.1
2019-03-19T03:00:01.616Z,0.0
2019-03-19T03:15:01.501Z,0.0
2019-03-19T03:20:01.473Z,0.0
2019-03-19T03:30:01.585Z,0.1
2019-03-19T03:35:01.774Z,0.1
2019-03-19T03:40:01.522Z,0.1
2019-03-19T03:45:01.469Z,0.1
2019-03-19T03:50:01.529Z,0.0
2019-03-19T03:55:02.404Z,0.1
2019-03-19T04:00:01.632Z,0.1
2019-03-19T04:05:01.567Z,0.0
2019-03-19T04:10:01.630Z,0.0
2019-03-19T04:15:01.538Z,0.1
2019-03-19T04:30:01.640Z,0.0
2019-03-19T04:35:01.706Z,0.0
2019-03-19T04:45:01.457Z,0.0
2019-03-19T04:50:07.464Z,0.0
2019-03-19T04:55:01.560Z,0.0
2019-03-19T05:00:01.500Z,0.0
2019-03-19T05:05:01.563Z,0.0
2019-03-19T05:15:01.496Z,0.1
2019-03-19T05:20:01.439Z,0.1
2019-03-19T05:25:01.638Z,0.1
2019-03-19T05:30:01.768Z,0.1
2019-03-19T05:45:01.500Z,0.0
2019-03-19T05:50:01.562Z,0.1
2019-03-19T05:55:01.446Z,0.1
2019-03-19T06:00:01.468Z,0.1
2019-03-19T06:05:01.503Z,0.2
2019-03-19T06:10:01.451Z,0.3
2019-03-19T06:15:01.532Z,0.3
2019-03-19T06:30:01.512Z,0.3
2019-03-19T06:35:01.565Z,0.2
2019-03-19T06:45:01.514Z,0.2
2019-03-19T06:55:01.507Z,0.2
2019-03-19T07:00:01.466Z,0.2
2019-03-19T07:05:02.466Z,0.1
2019-03-19T07:15:01.499Z,0.1
2019-03-19T07:30:01.512Z,0.1
2019-03-19T07:40:01.526Z,0.2
2019-03-19T07:45:01.567Z,0.1
2019-03-19T07:50:01.442Z,0.1
2019-03-19T07:55:01.503Z,0.2
2019-03-19T08:00:01.497Z,0.2
2019-03-19T08:05:01.497Z,0.2
2019-03-19T08:10:06.450Z,0.3
2019-03-19T08:15:01.570Z,0.3
2019-03-19T08:20:01.446Z,0.3
2019-03-19T08:30:01.569Z,0.2
2019-03-19T08:35:01.582Z,0.2
2019-03-19T08:40:01.494Z,0.2
2019-03-19T08:45:01.585Z,0.1
2019-03-19T08:50:01.461Z,0.1
2019-03-19T08:55:01.472Z,0.1
2019-03-19T09:00:01.450Z,0.1
2019-03-19T09:05:03.502Z,0.1
2019-03-19T09:15:01.578Z,0.0
2019-03-19T09:20:01.474Z,0.0
2019-03-19T09:25:01.512Z,0.0
2019-03-19T09:30:01.446Z,0.0
2019-03-19T09:35:01.528Z,0.0
2019-03-19T09:40:01.474Z,0.0
2019-03-19T09:45:01.450Z,0.1
2019-03-19T09:50:01.473Z,0.3
2019-03-19T09:55:01.570Z,0.3
2019-03-19T10:00:01.476Z,0.3
2019-03-19T10:05:02.530Z,0.3
2019-03-19T10:10:01.476Z,0.1
2019-03-19T10:15:01.437Z,0.0
2019-03-19T10:20:06.783Z,0.0
2019-03-19T10:30:01.522Z,0.0
2019-03-19T10:35:01.547Z,0.0
2019-03-19T10:40:01.472Z,0.2
2019-03-19T10:45:01.461Z,0.3
2019-03-19T10:51:02.038Z,0.5
2019-03-19T11:01:01.542Z,0.8
2019-03-19T11:06:01.573Z,0.8
2019-03-19T11:11:04.080Z,0.6
2019-03-19T11:16:01.509Z,0.6
2019-03-19T11:26:01.521Z,0.5
2019-03-19T11:31:01.448Z,0.3
2019-03-19T11:36:01.594Z,0.4
2019-03-19T11:41:01.445Z,0.4
2019-03-19T11:51:01.598Z,0.5
2019-03-19T11:56:01.504Z,0.5
2019-03-19T12:01:01.436Z,0.3
2019-03-19T12:06:01.504Z,0.2
2019-03-19T12:11:01.453Z,0.0
2019-03-19T12:16:01.573Z,0.0
2019-03-19T12:21:01.485Z,0.0
2019-03-19T12:26:01.517Z,0.2
2019-03-19T12:31:01.444Z,0.2
2019-03-19T12:36:01.608Z,0.2
2019-03-19T12:51:01.520Z,0.0
2019-03-19T12:56:01.509Z,0.0
2019-03-19T13:01:01.659Z,0.0
2019-03-19T13:06:01.501Z,0.0
2019-03-19T13:11:01.446Z,0.0
2019-03-19T13:16:01.598Z,0.0
2019-03-19T13:21:01.440Z,0.0
2019-03-19T13:26:01.566Z,0.0
2019-03-19T13:31:01.441Z,0.0
2019-03-19T13:36:01.506Z,0.2
2019-03-19T13:41:01.479Z,0.4
2019-03-19T13:46:01.508Z,0.5
2019-03-19T13:51:01.476Z,0.7
2019-03-19T13:56:01.574Z,0.9
2019-03-19T14:01:01.453Z,0.9
2019-03-19T14:06:01.524Z,0.8
2019-03-19T14:11:01.469Z,0.6
2019-03-19T14:16:01.497Z,0.4
2019-03-19T14:21:01.452Z,0.4
2019-03-19T14:36:01.545Z,0.5
2019-03-19T14:41:01.467Z,0.7
2019-03-19T14:46:01.518Z,0.7
2019-03-19T14:56:01.597Z,0.6
2019-03-19T15:06:01.568Z,0.6
2019-03-19T15:11:01.445Z,0.5
2019-03-19T15:16:01.515Z,0.3
2019-03-19T15:21:01.444Z,0.3
2019-03-19T15:26:01.503Z,0.2
2019-03-19T15:36:01.573Z,0.2
2019-03-19T15:41:01.448Z,0.2
2019-03-19T15:46:01.568Z,0.2
2019-03-19T15:51:01.430Z,0.2
2019-03-19T16:01:01.437Z,0.0
2019-03-19T16:06:01.509Z,0.0
2019-03-19T16:11:01.451Z,0.0
2019-03-19T16:21:01.717Z,0.0
2019-03-19T16:26:01.531Z,0.0
2019-03-19T16:36:01.496Z,0.1
2019-03-19T16:41:01.440Z,0.1
2019-03-19T16:51:01.508Z,0.1
2019-03-19T16:56:01.554Z,0.1
2019-03-19T17:06:01.520Z,0.0
2019-03-19T17:11:01.436Z,0.0
2019-03-19T17:21:01.505Z,0.0
2019-03-19T17:26:01.987Z,0.0
2019-03-19T17:31:01.442Z,0.0
2019-03-19T17:36:01.497Z,0.0
2019-03-19T17:41:01.534Z,0.0
2019-03-19T17:46:01.645Z,0.0
2019-03-19T17:51:01.449Z,0.0
2019-03-19T17:56:01.567Z,0.0
2019-03-19T18:01:01.431Z,0.0
2019-03-19T18:06:01.531Z,0.0
2019-03-19T18:11:01.432Z,0.1
2019-03-19T18:16:02.511Z,0.1
2019-03-19T18:21:01.453Z,0.1
2019-03-19T18:27:01.494Z,0.1
2019-03-19T18:32:02.024Z,0.1
2019-03-19T18:37:01.547Z,0.1
2019-03-19T18:42:01.470Z,0.2
2019-03-19T18:47:01.514Z,0.7
2019-03-19T18:52:06.450Z,0.9
2019-03-19T18:57:01.511Z,1.1
2019-03-19T19:02:01.473Z,1.1
2019-03-19T19:07:01.569Z,1.0
2019-03-19T19:12:01.475Z,0.6
2019-03-19T19:17:01.534Z,0.4
2019-03-19T19:22:01.479Z,0.3
2019-03-19T19:27:01.448Z,0.2
2019-03-19T19:32:01.465Z,0.2
2019-03-19T19:37:01.497Z,0.3
2019-03-19T19:42:01.442Z,0.2
2019-03-19T19:47:01.569Z,0.3
2019-03-19T19:52:01.473Z,0.3
2019-03-19T19:57:01.536Z,0.4
2019-03-19T20:02:01.480Z,0.4
2019-03-19T20:07:01.605Z,0.5
2019-03-19T20:12:01.451Z,0.7
2019-03-19T20:17:01.493Z,0.8
2019-03-19T20:22:01.438Z,1.0
2019-03-19T20:27:01.507Z,1.1
2019-03-19T20:32:01.470Z,1.1
2019-03-19T20:42:01.507Z,0.9
2019-03-19T20:47:01.584Z,0.9
2019-03-19T20:52:01.537Z,1.1
2019-03-19T20:57:01.576Z,0.9
2019-03-19T21:02:01.432Z,0.9
2019-03-19T21:07:06.537Z,0.8
2019-03-19T21:12:01.444Z,0.6
2019-03-19T21:17:01.449Z,0.4
2019-03-19T21:27:01.620Z,0.3
2019-03-19T21:42:01.443Z,0.5
2019-03-19T21:52:01.567Z,0.6
2019-03-19T21:57:01.642Z,0.5
2019-03-19T22:02:01.446Z,0.5
2019-03-19T22:12:01.545Z,0.5
2019-03-19T22:17:01.641Z,0.5
2019-03-19T22:22:01.484Z,0.6
2019-03-19T22:32:01.536Z,0.6
2019-03-19T22:37:01.496Z,0.5
2019-03-19T22:52:01.576Z,0.3
2019-03-19T22:57:01.489Z,0.4
2019-03-19T23:02:01.481Z,0.3
2019-03-19T23:07:01.455Z,0.3
2019-03-19T23:12:01.434Z,0.2
2019-03-19T23:17:01.567Z,0.2
2019-03-19T23:22:01.439Z,0.2
2019-03-19T23:27:01.508Z,0.1
2019-03-19T23:32:01.441Z,0.1
2019-03-19T23:37:01.475Z,0.0
2019-03-19T23:42:01.488Z,0.1
2019-03-19T23:47:01.565Z,0.1
